sensor_id;sensor_type;location;lat;lon;timestamp;pressure;altitude;pressure_sealevel;temperature;humidity
11523;BME280;40093;43.224;27.910;2022-08-21T00:00:20;99791.97;;;26.84;100.00
11523;BME280;40093;43.224;27.910;2022-08-21T00:02:51;99790.00;;;26.59;100.00
11523;BME280;40093;43.224;27.910;2022-08-21T00:05:19;99792.59;;;26.62;100.00
11523;BME280;40093;43.224;27.910;2022-08-21T00:07:46;99793.03;;;26.55;100.00
11523;BME280;40093;43.224;27.910;2022-08-21T00:10:13;99790.41;;;26.46;100.00
11523;BME280;40093;43.224;27.910;2022-08-21T00:12:43;99783.47;;;26.47;100.00
11523;BME280;40093;43.224;27.910;2022-08-21T00:15:13;99797.66;;;26.53;100.00
11523;BME280;40093;43.224;27.910;2022-08-21T00:17:42;99782.19;;;26.48;100.00
11523;BME280;40093;43.224;27.910;2022-08-21T00:20:10;99772.75;;;26.51;100.00
11523;BME280;40093;43.224;27.910;2022-08-21T00:22:38;99778.94;;;26.55;100.00
11523;BME280;40093;43.224;27.910;2022-08-21T00:25:06;99777.69;;;26.56;100.00
11523;BME280;40093;43.224;27.910;2022-08-21T00:27:34;99778.19;;;26.29;100.00
11523;BME280;40093;43.224;27.910;2022-08-21T00:30:01;99763.94;;;25.88;100.00
11523;BME280;40093;43.224;27.910;2022-08-21T00:32:29;99759.31;;;25.65;100.00
11523;BME280;40093;43.224;27.910;2022-08-21T00:34:58;99753.78;;;25.50;100.00
11523;BME280;40093;43.224;27.910;2022-08-21T00:37:25;99755.16;;;25.60;100.00
11523;BME280;40093;43.224;27.910;2022-08-21T00:39:52;99759.13;;;25.48;100.00
11523;BME280;40093;43.224;27.910;2022-08-21T00:42:19;99752.22;;;25.49;100.00
11523;BME280;40093;43.224;27.910;2022-08-21T00:44:47;99747.66;;;25.32;100.00
11523;BME280;40093;43.224;27.910;2022-08-21T00:47:14;99744.97;;;25.43;100.00
11523;BME280;40093;43.224;27.910;2022-08-21T00:49:41;99745.72;;;25.63;100.00
11523;BME280;40093;43.224;27.910;2022-08-21T00:52:19;99751.56;;;25.85;100.00
11523;BME280;40093;43.224;27.910;2022-08-21T00:54:47;99759.31;;;25.65;100.00
11523;BME280;40093;43.224;27.910;2022-08-21T00:57:17;99746.94;;;25.57;100.00
11523;BME280;40093;43.224;27.910;2022-08-21T00:59:48;99753.38;;;25.83;100.00
11523;BME280;40093;43.224;27.910;2022-08-21T01:02:17;99761.50;;;26.00;100.00
11523;BME280;40093;43.224;27.910;2022-08-21T01:04:45;99760.84;;;26.11;100.00
11523;BME280;40093;43.224;27.910;2022-08-21T01:07:14;99760.44;;;26.23;100.00
11523;BME280;40093;43.224;27.910;2022-08-21T01:09:41;99759.53;;;26.37;100.00
11523;BME280;40093;43.224;27.910;2022-08-21T01:12:09;99758.31;;;26.44;100.00
11523;BME280;40093;43.224;27.910;2022-08-21T01:14:37;99762.75;;;26.50;100.00
11523;BME280;40093;43.224;27.910;2022-08-21T01:17:05;99760.44;;;26.54;100.00
11523;BME280;40093;43.224;27.910;2022-08-21T01:19:32;99766.09;;;26.54;100.00
11523;BME280;40093;43.224;27.910;2022-08-21T01:22:01;99758.19;;;26.58;100.00
11523;BME280;40093;43.224;27.910;2022-08-21T01:24:28;99752.28;;;26.56;100.00
11523;BME280;40093;43.224;27.910;2022-08-21T01:26:58;99745.34;;;26.57;100.00
11523;BME280;40093;43.224;27.910;2022-08-21T01:29:30;99761.81;;;26.64;100.00
11523;BME280;40093;43.224;27.910;2022-08-21T01:31:59;99756.44;;;26.66;100.00
11523;BME280;40093;43.224;27.910;2022-08-21T01:34:29;99758.72;;;26.62;100.00
11523;BME280;40093;43.224;27.910;2022-08-21T01:36:57;99771.03;;;26.59;100.00
11523;BME280;40093;43.224;27.910;2022-08-21T01:39:25;99765.94;;;26.38;100.00
11523;BME280;40093;43.224;27.910;2022-08-21T01:41:52;99763.34;;;26.03;100.00
11523;BME280;40093;43.224;27.910;2022-08-21T01:44:20;99767.34;;;25.97;100.00
11523;BME280;40093;43.224;27.910;2022-08-21T01:46:47;99761.00;;;26.02;100.00
11523;BME280;40093;43.224;27.910;2022-08-21T01:49:14;99753.56;;;25.99;100.00
11523;BME280;40093;43.224;27.910;2022-08-21T01:51:41;99752.44;;;25.91;100.00
11523;BME280;40093;43.224;27.910;2022-08-21T01:54:09;99746.03;;;25.90;100.00
11523;BME280;40093;43.224;27.910;2022-08-21T01:56:40;99740.03;;;25.83;100.00
11523;BME280;40093;43.224;27.910;2022-08-21T01:59:08;99740.13;;;25.88;100.00
11523;BME280;40093;43.224;27.910;2022-08-21T02:01:36;99740.16;;;25.94;100.00
11523;BME280;40093;43.224;27.910;2022-08-21T02:04:05;99738.13;;;25.94;100.00
11523;BME280;40093;43.224;27.910;2022-08-21T02:06:33;99734.81;;;25.96;100.00
11523;BME280;40093;43.224;27.910;2022-08-21T02:09:00;99729.94;;;25.96;100.00
11523;BME280;40093;43.224;27.910;2022-08-21T02:11:27;99736.41;;;26.02;100.00
11523;BME280;40093;43.224;27.910;2022-08-21T02:13:55;99737.28;;;25.88;100.00
11523;BME280;40093;43.224;27.910;2022-08-21T02:16:22;99736.28;;;25.91;100.00
11523;BME280;40093;43.224;27.910;2022-08-21T02:18:49;99743.50;;;25.92;100.00
11523;BME280;40093;43.224;27.910;2022-08-21T02:21:16;99737.34;;;25.94;100.00
11523;BME280;40093;43.224;27.910;2022-08-21T02:23:43;99743.22;;;25.90;100.00
11523;BME280;40093;43.224;27.910;2022-08-21T02:26:12;99720.75;;;25.51;100.00
11523;BME280;40093;43.224;27.910;2022-08-21T02:28:39;99740.88;;;25.44;100.00
11523;BME280;40093;43.224;27.910;2022-08-21T02:31:08;99748.56;;;25.43;100.00
11523;BME280;40093;43.224;27.910;2022-08-21T02:33:35;99747.78;;;25.43;100.00
11523;BME280;40093;43.224;27.910;2022-08-21T02:36:03;99753.28;;;25.52;100.00
11523;BME280;40093;43.224;27.910;2022-08-21T02:38:31;99751.28;;;25.18;100.00
11523;BME280;40093;43.224;27.910;2022-08-21T02:41:00;99754.41;;;25.20;100.00
11523;BME280;40093;43.224;27.910;2022-08-21T02:43:27;99753.34;;;25.17;100.00
11523;BME280;40093;43.224;27.910;2022-08-21T02:45:56;99763.38;;;25.38;100.00
11523;BME280;40093;43.224;27.910;2022-08-21T02:48:26;99761.75;;;25.52;100.00
11523;BME280;40093;43.224;27.910;2022-08-21T02:50:56;99763.47;;;25.69;100.00
11523;BME280;40093;43.224;27.910;2022-08-21T02:53:24;99759.97;;;25.79;100.00
11523;BME280;40093;43.224;27.910;2022-08-21T02:55:52;99762.59;;;25.83;100.00
11523;BME280;40093;43.224;27.910;2022-08-21T02:58:22;99763.47;;;25.09;100.00
11523;BME280;40093;43.224;27.910;2022-08-21T03:00:49;99764.59;;;25.17;100.00
11523;BME280;40093;43.224;27.910;2022-08-21T03:03:17;99756.78;;;25.07;100.00
11523;BME280;40093;43.224;27.910;2022-08-21T03:05:45;99754.94;;;25.04;100.00
11523;BME280;40093;43.224;27.910;2022-08-21T03:08:13;99761.38;;;25.04;100.00
11523;BME280;40093;43.224;27.910;2022-08-21T03:10:43;99745.59;;;25.12;100.00
11523;BME280;40093;43.224;27.910;2022-08-21T03:13:11;99760.63;;;25.24;100.00
11523;BME280;40093;43.224;27.910;2022-08-21T03:15:39;99756.59;;;25.30;100.00
11523;BME280;40093;43.224;27.910;2022-08-21T03:18:06;99757.31;;;25.25;100.00
11523;BME280;40093;43.224;27.910;2022-08-21T03:20:35;99757.72;;;25.38;100.00
11523;BME280;40093;43.224;27.910;2022-08-21T03:23:07;99753.31;;;25.32;100.00
11523;BME280;40093;43.224;27.910;2022-08-21T03:25:34;99755.97;;;25.41;100.00
11523;BME280;40093;43.224;27.910;2022-08-21T03:28:03;99757.66;;;25.53;100.00
11523;BME280;40093;43.224;27.910;2022-08-21T03:30:31;99762.00;;;25.54;100.00
11523;BME280;40093;43.224;27.910;2022-08-21T03:32:58;99762.84;;;25.60;100.00
11523;BME280;40093;43.224;27.910;2022-08-21T03:35:25;99763.63;;;25.60;100.00
11523;BME280;40093;43.224;27.910;2022-08-21T03:37:52;99761.41;;;25.70;100.00
11523;BME280;40093;43.224;27.910;2022-08-21T03:40:23;99764.06;;;25.78;100.00
11523;BME280;40093;43.224;27.910;2022-08-21T03:42:51;99771.13;;;25.88;100.00
11523;BME280;40093;43.224;27.910;2022-08-21T03:45:19;99771.91;;;25.89;100.00
11523;BME280;40093;43.224;27.910;2022-08-21T03:47:54;99778.75;;;26.08;100.00
11523;BME280;40093;43.224;27.910;2022-08-21T03:50:23;99780.47;;;26.25;100.00
11523;BME280;40093;43.224;27.910;2022-08-21T03:52:50;99773.78;;;26.23;100.00
11523;BME280;40093;43.224;27.910;2022-08-21T03:55:18;99780.00;;;26.32;100.00
11523;BME280;40093;43.224;27.910;2022-08-21T03:57:46;99782.56;;;26.30;100.00
11523;BME280;40093;43.224;27.910;2022-08-21T04:00:15;99781.78;;;26.30;100.00
11523;BME280;40093;43.224;27.910;2022-08-21T04:02:45;99778.50;;;26.68;100.00
11523;BME280;40093;43.224;27.910;2022-08-21T04:05:14;99787.94;;;26.96;100.00
11523;BME280;40093;43.224;27.910;2022-08-21T04:07:52;99788.19;;;27.34;100.00
11523;BME280;40093;43.224;27.910;2022-08-21T04:10:20;99799.34;;;27.65;100.00
11523;BME280;40093;43.224;27.910;2022-08-21T04:12:48;99784.84;;;28.16;100.00
11523;BME280;40093;43.224;27.910;2022-08-21T04:15:15;99788.22;;;28.48;100.00
11523;BME280;40093;43.224;27.910;2022-08-21T04:17:42;99794.91;;;28.83;100.00
11523;BME280;40093;43.224;27.910;2022-08-21T04:20:09;99790.47;;;29.15;100.00
11523;BME280;40093;43.224;27.910;2022-08-21T04:22:37;99790.16;;;29.35;99.01
11523;BME280;40093;43.224;27.910;2022-08-21T04:25:05;99780.28;;;29.58;95.27
11523;BME280;40093;43.224;27.910;2022-08-21T04:27:33;99780.94;;;29.80;93.44
11523;BME280;40093;43.224;27.910;2022-08-21T04:30:01;99776.69;;;30.03;90.16
11523;BME280;40093;43.224;27.910;2022-08-21T04:32:28;99775.63;;;29.66;91.63
11523;BME280;40093;43.224;27.910;2022-08-21T04:34:58;99773.28;;;28.58;97.97
11523;BME280;40093;43.224;27.910;2022-08-21T04:37:26;99777.38;;;28.24;100.00
11523;BME280;40093;43.224;27.910;2022-08-21T04:39:54;99784.63;;;28.36;100.00
11523;BME280;40093;43.224;27.910;2022-08-21T04:42:23;99787.72;;;28.71;100.00
11523;BME280;40093;43.224;27.910;2022-08-21T04:44:50;99774.28;;;28.93;98.18
11523;BME280;40093;43.224;27.910;2022-08-21T04:47:19;99786.91;;;28.76;98.29
11523;BME280;40093;43.224;27.910;2022-08-21T04:49:46;99774.06;;;28.37;100.00
11523;BME280;40093;43.224;27.910;2022-08-21T04:52:19;99773.53;;;28.11;100.00
11523;BME280;40093;43.224;27.910;2022-08-21T04:54:48;99761.69;;;28.29;100.00
11523;BME280;40093;43.224;27.910;2022-08-21T04:57:16;99768.13;;;28.95;99.05
11523;BME280;40093;43.224;27.910;2022-08-21T04:59:46;99772.38;;;29.86;92.81
11523;BME280;40093;43.224;27.910;2022-08-21T05:02:14;99765.28;;;30.44;87.92
11523;BME280;40093;43.224;27.910;2022-08-21T05:04:46;99761.13;;;31.04;83.79
11523;BME280;40093;43.224;27.910;2022-08-21T05:07:18;99762.59;;;31.52;80.19
11523;BME280;40093;43.224;27.910;2022-08-21T05:09:46;99757.84;;;31.60;77.10
11523;BME280;40093;43.224;27.910;2022-08-21T05:12:13;99756.00;;;32.00;75.33
11523;BME280;40093;43.224;27.910;2022-08-21T05:14:40;99760.94;;;31.99;72.99
11523;BME280;40093;43.224;27.910;2022-08-21T05:17:08;99741.59;;;32.11;73.46
11523;BME280;40093;43.224;27.910;2022-08-21T05:19:35;99744.03;;;32.38;71.32
11523;BME280;40093;43.224;27.910;2022-08-21T05:22:03;99750.16;;;32.74;69.34
11523;BME280;40093;43.224;27.910;2022-08-21T05:24:30;99749.31;;;33.05;68.10
11523;BME280;40093;43.224;27.910;2022-08-21T05:26:57;99741.00;;;32.62;70.03
11523;BME280;40093;43.224;27.910;2022-08-21T05:29:24;99744.91;;;32.91;68.25
11523;BME280;40093;43.224;27.910;2022-08-21T05:31:51;99747.88;;;33.37;66.41
11523;BME280;40093;43.224;27.910;2022-08-21T05:34:21;99747.44;;;33.46;66.27
11523;BME280;40093;43.224;27.910;2022-08-21T05:36:48;99743.84;;;33.33;67.27
11523;BME280;40093;43.224;27.910;2022-08-21T05:39:16;99750.50;;;33.09;68.21
11523;BME280;40093;43.224;27.910;2022-08-21T05:41:43;99744.13;;;33.55;66.27
11523;BME280;40093;43.224;27.910;2022-08-21T05:44:10;99746.38;;;33.83;65.40
11523;BME280;40093;43.224;27.910;2022-08-21T05:46:37;99743.28;;;33.94;64.44
11523;BME280;40093;43.224;27.910;2022-08-21T05:49:04;99745.78;;;33.97;63.96
11523;BME280;40093;43.224;27.910;2022-08-21T05:51:31;99748.78;;;34.25;62.52
11523;BME280;40093;43.224;27.910;2022-08-21T05:53:58;99741.53;;;34.24;63.31
11523;BME280;40093;43.224;27.910;2022-08-21T05:56:26;99743.59;;;34.44;61.60
11523;BME280;40093;43.224;27.910;2022-08-21T05:58:53;99742.94;;;33.97;62.80
11523;BME280;40093;43.224;27.910;2022-08-21T06:01:20;99742.69;;;33.62;64.13
11523;BME280;40093;43.224;27.910;2022-08-21T06:03:47;99742.75;;;33.69;64.31
11523;BME280;40093;43.224;27.910;2022-08-21T06:06:16;99739.66;;;33.93;63.16
11523;BME280;40093;43.224;27.910;2022-08-21T06:08:43;99744.63;;;34.13;62.78
11523;BME280;40093;43.224;27.910;2022-08-21T06:11:10;99737.28;;;34.38;61.54
11523;BME280;40093;43.224;27.910;2022-08-21T06:13:39;99740.00;;;34.23;61.28
11523;BME280;40093;43.224;27.910;2022-08-21T06:16:09;99746.06;;;34.40;60.90
11523;BME280;40093;43.224;27.910;2022-08-21T06:18:37;99738.31;;;34.48;60.54
11523;BME280;40093;43.224;27.910;2022-08-21T06:21:05;99748.53;;;34.64;60.37
11523;BME280;40093;43.224;27.910;2022-08-21T06:23:33;99745.03;;;34.71;60.77
11523;BME280;40093;43.224;27.910;2022-08-21T06:26:00;99741.09;;;34.61;60.56
11523;BME280;40093;43.224;27.910;2022-08-21T06:28:28;99738.31;;;34.48;61.22
11523;BME280;40093;43.224;27.910;2022-08-21T06:30:57;99736.59;;;34.45;61.04
11523;BME280;40093;43.224;27.910;2022-08-21T06:33:24;99749.56;;;33.92;62.62
11523;BME280;40093;43.224;27.910;2022-08-21T06:35:51;99742.84;;;33.43;64.45
11523;BME280;40093;43.224;27.910;2022-08-21T06:38:18;99744.84;;;33.22;65.21
11523;BME280;40093;43.224;27.910;2022-08-21T06:40:45;99736.91;;;33.02;65.79
11523;BME280;40093;43.224;27.910;2022-08-21T06:43:15;99747.44;;;33.46;64.84
11523;BME280;40093;43.224;27.910;2022-08-21T06:45:42;99744.59;;;33.33;64.61
11523;BME280;40093;43.224;27.910;2022-08-21T06:48:10;99752.94;;;33.44;64.86
11523;BME280;40093;43.224;27.910;2022-08-21T06:50:37;99752.72;;;33.42;63.45
11523;BME280;40093;43.224;27.910;2022-08-21T06:53:06;99753.06;;;32.55;66.86
11523;BME280;40093;43.224;27.910;2022-08-21T06:55:35;99759.56;;;32.69;67.02
11523;BME280;40093;43.224;27.910;2022-08-21T06:58:02;99760.81;;;32.86;66.33
11523;BME280;40093;43.224;27.910;2022-08-21T07:00:29;99761.44;;;32.79;66.64
11523;BME280;40093;43.224;27.910;2022-08-21T07:02:56;99761.13;;;32.83;65.99
11523;BME280;40093;43.224;27.910;2022-08-21T07:05:26;99754.56;;;33.14;65.21
11523;BME280;40093;43.224;27.910;2022-08-21T07:07:53;99753.16;;;33.20;64.30
11523;BME280;40093;43.224;27.910;2022-08-21T07:10:20;99760.28;;;33.40;63.85
11523;BME280;40093;43.224;27.910;2022-08-21T07:12:47;99754.56;;;33.40;63.39
11523;BME280;40093;43.224;27.910;2022-08-21T07:15:14;99749.41;;;32.99;65.08
11523;BME280;40093;43.224;27.910;2022-08-21T07:17:41;99756.84;;;32.45;67.45
11523;BME280;40093;43.224;27.910;2022-08-21T07:20:08;99743.59;;;32.47;67.86
11523;BME280;40093;43.224;27.910;2022-08-21T07:22:37;99750.22;;;32.55;66.92
11523;BME280;40093;43.224;27.910;2022-08-21T07:25:06;99743.81;;;32.36;67.46
11523;BME280;40093;43.224;27.910;2022-08-21T07:27:33;99745.38;;;32.50;67.20
11523;BME280;40093;43.224;27.910;2022-08-21T07:30:00;99740.41;;;32.82;65.52
11523;BME280;40093;43.224;27.910;2022-08-21T07:32:27;99739.97;;;32.78;66.07
11523;BME280;40093;43.224;27.910;2022-08-21T07:34:54;99742.06;;;33.17;64.06
11523;BME280;40093;43.224;27.910;2022-08-21T07:37:21;99733.44;;;33.22;63.43
11523;BME280;40093;43.224;27.910;2022-08-21T07:39:50;99737.91;;;33.44;62.98
11523;BME280;40093;43.224;27.910;2022-08-21T07:42:17;99739.00;;;33.41;62.50
11523;BME280;40093;43.224;27.910;2022-08-21T07:44:44;99739.38;;;32.67;64.08
11523;BME280;40093;43.224;27.910;2022-08-21T07:47:11;99743.22;;;32.69;64.76
11523;BME280;40093;43.224;27.910;2022-08-21T07:49:38;99739.75;;;32.89;63.17
11523;BME280;40093;43.224;27.910;2022-08-21T07:52:05;99741.81;;;32.31;64.21
11523;BME280;40093;43.224;27.910;2022-08-21T07:54:32;99733.22;;;32.00;65.67
11523;BME280;40093;43.224;27.910;2022-08-21T07:57:01;99729.63;;;31.81;66.72
11523;BME280;40093;43.224;27.910;2022-08-21T07:59:28;99731.25;;;31.95;65.77
11523;BME280;40093;43.224;27.910;2022-08-21T08:01:55;99724.00;;;32.12;63.50
11523;BME280;40093;43.224;27.910;2022-08-21T08:04:23;99723.66;;;32.34;60.00
11523;BME280;40093;43.224;27.910;2022-08-21T08:06:51;99725.84;;;32.10;60.01
11523;BME280;40093;43.224;27.910;2022-08-21T08:09:17;99722.94;;;31.42;61.66
11523;BME280;40093;43.224;27.910;2022-08-21T08:11:45;99724.06;;;31.15;62.39
11523;BME280;40093;43.224;27.910;2022-08-21T08:14:13;99716.69;;;31.01;63.30
11523;BME280;40093;43.224;27.910;2022-08-21T08:16:41;99728.06;;;31.25;62.60
11523;BME280;40093;43.224;27.910;2022-08-21T08:19:08;99710.25;;;31.43;61.76
11523;BME280;40093;43.224;27.910;2022-08-21T08:21:34;99708.19;;;31.61;60.35
11523;BME280;40093;43.224;27.910;2022-08-21T08:24:03;99717.88;;;31.71;59.36
11523;BME280;40093;43.224;27.910;2022-08-21T08:26:30;99712.03;;;31.64;59.77
11523;BME280;40093;43.224;27.910;2022-08-21T08:28:57;99713.56;;;31.83;58.56
11523;BME280;40093;43.224;27.910;2022-08-21T08:31:25;99713.41;;;31.94;58.55
11523;BME280;40093;43.224;27.910;2022-08-21T08:33:52;99704.25;;;32.01;59.16
11523;BME280;40093;43.224;27.910;2022-08-21T08:36:19;99703.97;;;32.18;59.17
11523;BME280;40093;43.224;27.910;2022-08-21T08:38:47;99709.97;;;32.14;60.47
11523;BME280;40093;43.224;27.910;2022-08-21T08:41:17;99700.59;;;32.19;60.77
11523;BME280;40093;43.224;27.910;2022-08-21T08:43:49;99697.72;;;31.88;62.54
11523;BME280;40093;43.224;27.910;2022-08-21T08:46:19;99694.69;;;31.99;63.28
11523;BME280;40093;43.224;27.910;2022-08-21T08:48:53;99682.81;;;31.82;64.09
11523;BME280;40093;43.224;27.910;2022-08-21T08:51:25;99700.63;;;32.01;65.15
11523;BME280;40093;43.224;27.910;2022-08-21T08:54:01;99703.16;;;32.04;63.98
11523;BME280;40093;43.224;27.910;2022-08-21T08:56:31;99707.50;;;31.92;64.21
11523;BME280;40093;43.224;27.910;2022-08-21T08:59:03;99704.94;;;31.89;64.85
11523;BME280;40093;43.224;27.910;2022-08-21T09:01:34;99692.06;;;32.01;64.28
11523;BME280;40093;43.224;27.910;2022-08-21T09:04:02;99685.88;;;32.15;63.30
11523;BME280;40093;43.224;27.910;2022-08-21T09:06:49;99690.50;;;32.18;62.93
11523;BME280;40093;43.224;27.910;2022-08-21T09:09:31;99683.25;;;32.17;62.22
11523;BME280;40093;43.224;27.910;2022-08-21T09:12:04;99692.91;;;32.14;62.59
11523;BME280;40093;43.224;27.910;2022-08-21T09:17:39;99681.13;;;31.73;65.59
11523;BME280;40093;43.224;27.910;2022-08-21T09:20:18;99679.28;;;31.76;64.88
11523;BME280;40093;43.224;27.910;2022-08-21T09:22:58;99685.28;;;31.72;65.52
11523;BME280;40093;43.224;27.910;2022-08-21T09:25:29;99675.13;;;31.58;66.33
11523;BME280;40093;43.224;27.910;2022-08-21T09:27:58;99674.28;;;31.63;65.54
11523;BME280;40093;43.224;27.910;2022-08-21T09:30:27;99661.91;;;31.79;66.01
11523;BME280;40093;43.224;27.910;2022-08-21T09:32:55;99667.50;;;31.85;64.98
11523;BME280;40093;43.224;27.910;2022-08-21T09:35:24;99668.03;;;31.83;64.08
11523;BME280;40093;43.224;27.910;2022-08-21T09:37:54;99660.47;;;31.73;65.32
11523;BME280;40093;43.224;27.910;2022-08-21T09:40:33;99667.50;;;31.66;61.74
11523;BME280;40093;43.224;27.910;2022-08-21T09:43:04;99660.19;;;31.89;63.77
11523;BME280;40093;43.224;27.910;2022-08-21T09:45:32;99657.09;;;31.87;64.34
11523;BME280;40093;43.224;27.910;2022-08-21T09:48:11;99657.28;;;31.76;64.46
11523;BME280;40093;43.224;27.910;2022-08-21T09:50:41;99657.94;;;31.69;64.97
11523;BME280;40093;43.224;27.910;2022-08-21T09:53:16;99658.69;;;31.52;65.97
11523;BME280;40093;43.224;27.910;2022-08-21T09:55:49;99659.00;;;31.30;67.34
11523;BME280;40093;43.224;27.910;2022-08-21T09:58:36;99645.72;;;31.38;66.12
11523;BME280;40093;43.224;27.910;2022-08-21T10:01:05;99661.13;;;31.24;68.00
11523;BME280;40093;43.224;27.910;2022-08-21T10:03:33;99650.84;;;31.21;67.51
11523;BME280;40093;43.224;27.910;2022-08-21T10:06:05;99649.56;;;30.98;69.47
11523;BME280;40093;43.224;27.910;2022-08-21T10:08:36;99656.75;;;30.80;70.80
11523;BME280;40093;43.224;27.910;2022-08-21T10:11:07;99655.47;;;30.57;73.43
11523;BME280;40093;43.224;27.910;2022-08-21T10:13:51;99659.97;;;30.71;72.07
11523;BME280;40093;43.224;27.910;2022-08-21T10:16:45;99654.31;;;30.42;75.82
11523;BME280;40093;43.224;27.910;2022-08-21T10:19:21;99654.53;;;30.20;79.51
11523;BME280;40093;43.224;27.910;2022-08-21T10:22:00;99645.88;;;30.07;81.61
11523;BME280;40093;43.224;27.910;2022-08-21T10:24:33;99649.00;;;30.33;78.51
11523;BME280;40093;43.224;27.910;2022-08-21T10:27:15;99651.72;;;30.44;79.08
11523;BME280;40093;43.224;27.910;2022-08-21T10:29:51;99652.00;;;30.40;79.35
11523;BME280;40093;43.224;27.910;2022-08-21T10:32:29;99646.16;;;30.57;79.83
11523;BME280;40093;43.224;27.910;2022-08-21T10:35:07;99641.78;;;30.56;78.63
11523;BME280;40093;43.224;27.910;2022-08-21T10:37:58;99641.22;;;30.63;80.35
11523;BME280;40093;43.224;27.910;2022-08-21T10:40:31;99640.69;;;30.59;81.74
11523;BME280;40093;43.224;27.910;2022-08-21T10:43:15;99636.00;;;30.67;83.42
11523;BME280;40093;43.224;27.910;2022-08-21T10:45:52;99645.25;;;30.73;84.27
11523;BME280;40093;43.224;27.910;2022-08-21T10:48:25;99629.88;;;30.63;83.86
11523;BME280;40093;43.224;27.910;2022-08-21T10:51:00;99639.16;;;30.58;85.47
11523;BME280;40093;43.224;27.910;2022-08-21T10:53:45;99642.34;;;30.49;84.20
11523;BME280;40093;43.224;27.910;2022-08-21T10:56:18;99639.28;;;30.47;83.92
11523;BME280;40093;43.224;27.910;2022-08-21T10:58:51;99637.22;;;30.47;84.82
11523;BME280;40093;43.224;27.910;2022-08-21T11:01:25;99626.50;;;30.35;87.03
11523;BME280;40093;43.224;27.910;2022-08-21T11:04:04;99630.19;;;30.30;88.10
11523;BME280;40093;43.224;27.910;2022-08-21T11:06:37;99628.94;;;30.25;87.83
11523;BME280;40093;43.224;27.910;2022-08-21T11:09:12;99628.34;;;30.03;87.71
11523;BME280;40093;43.224;27.910;2022-08-21T11:11:44;99630.88;;;30.12;85.22
11523;BME280;40093;43.224;27.910;2022-08-21T11:14:20;99636.69;;;30.25;84.02
11523;BME280;40093;43.224;27.910;2022-08-21T11:16:53;99631.47;;;30.29;82.43
11523;BME280;40093;43.224;27.910;2022-08-21T11:19:28;99634.28;;;30.34;84.06
11523;BME280;40093;43.224;27.910;2022-08-21T11:22:01;99635.25;;;30.37;84.26
11523;BME280;40093;43.224;27.910;2022-08-21T11:24:38;99626.81;;;30.02;85.91
11523;BME280;40093;43.224;27.910;2022-08-21T11:27:17;99624.75;;;30.08;86.33
11523;BME280;40093;43.224;27.910;2022-08-21T11:29:48;99634.34;;;29.94;82.50
11523;BME280;40093;43.224;27.910;2022-08-21T11:32:31;99644.84;;;30.10;81.79
11523;BME280;40093;43.224;27.910;2022-08-21T11:35:10;99622.38;;;30.12;76.32
11523;BME280;40093;43.224;27.910;2022-08-21T11:37:48;99611.59;;;30.29;82.81
11523;BME280;40093;43.224;27.910;2022-08-21T11:40:30;99617.09;;;30.21;86.99
11523;BME280;40093;43.224;27.910;2022-08-21T11:43:05;99625.50;;;30.03;88.71
11523;BME280;40093;43.224;27.910;2022-08-21T11:45:42;99626.03;;;30.01;89.21
11523;BME280;40093;43.224;27.910;2022-08-21T11:48:35;99591.09;;;29.88;88.34
11523;BME280;40093;43.224;27.910;2022-08-21T11:51:07;99603.44;;;29.90;92.57
11523;BME280;40093;43.224;27.910;2022-08-21T11:53:40;99600.72;;;30.09;95.12
11523;BME280;40093;43.224;27.910;2022-08-21T11:56:20;99602.28;;;30.04;95.64
11523;BME280;40093;43.224;27.910;2022-08-21T11:58:51;99592.50;;;30.05;96.05
11523;BME280;40093;43.224;27.910;2022-08-21T12:01:22;99596.50;;;29.86;83.93
11523;BME280;40093;43.224;27.910;2022-08-21T12:03:54;99592.88;;;29.91;91.55
11523;BME280;40093;43.224;27.910;2022-08-21T12:06:29;99590.19;;;29.74;84.50
11523;BME280;40093;43.224;27.910;2022-08-21T12:08:58;99592.97;;;29.80;86.41
11523;BME280;40093;43.224;27.910;2022-08-21T12:11:27;99591.81;;;29.94;87.49
11523;BME280;40093;43.224;27.910;2022-08-21T12:13:57;99583.63;;;29.55;90.98
11523;BME280;40093;43.224;27.910;2022-08-21T12:16:32;99564.25;;;29.59;94.97
11523;BME280;40093;43.224;27.910;2022-08-21T12:19:04;99580.44;;;29.94;95.40
11523;BME280;40093;43.224;27.910;2022-08-21T12:21:31;99549.16;;;29.75;91.24
11523;BME280;40093;43.224;27.910;2022-08-21T12:24:05;99559.47;;;30.08;92.98
11523;BME280;40093;43.224;27.910;2022-08-21T12:26:52;99560.75;;;30.07;92.24
11523;BME280;40093;43.224;27.910;2022-08-21T12:29:24;99548.91;;;30.03;92.81
11523;BME280;40093;43.224;27.910;2022-08-21T12:31:59;99558.19;;;30.03;93.02
11523;BME280;40093;43.224;27.910;2022-08-21T12:34:34;99559.88;;;29.58;93.99
11523;BME280;40093;43.224;27.910;2022-08-21T12:37:04;99569.97;;;29.54;100.00
11523;BME280;40093;43.224;27.910;2022-08-21T12:39:36;99567.38;;;29.15;100.00
11523;BME280;40093;43.224;27.910;2022-08-21T12:42:11;99570.69;;;29.25;100.00
11523;BME280;40093;43.224;27.910;2022-08-21T12:44:46;99564.66;;;28.99;100.00
11523;BME280;40093;43.224;27.910;2022-08-21T12:47:19;99570.31;;;28.99;100.00
11523;BME280;40093;43.224;27.910;2022-08-21T12:49:54;99573.69;;;28.97;95.11
11523;BME280;40093;43.224;27.910;2022-08-21T12:52:29;99558.06;;;28.80;100.00
11523;BME280;40093;43.224;27.910;2022-08-21T12:54:56;99579.06;;;29.01;100.00
11523;BME280;40093;43.224;27.910;2022-08-21T12:57:29;99554.03;;;29.10;100.00
11523;BME280;40093;43.224;27.910;2022-08-21T12:59:58;99566.03;;;29.22;100.00
11523;BME280;40093;43.224;27.910;2022-08-21T13:02:30;99568.09;;;29.27;100.00